sensor_id;sensor_type;location;lat;lon;timestamp;temperature;humidity
3980;DHT22;2004;52.452;13.120;2023-04-25T00:06:16;9.10;99.90
3980;DHT22;2004;52.452;13.120;2023-04-25T00:14:08;9.10;99.90
3980;DHT22;2004;52.452;13.120;2023-04-25T00:21:59;9.10;99.90
3980;DHT22;2004;52.452;13.120;2023-04-25T00:29:51;9.20;99.90
3980;DHT22;2004;52.452;13.120;2023-04-25T00:37:41;9.20;99.90
3980;DHT22;2004;52.452;13.120;2023-04-25T00:45:34;9.10;99.90
3980;DHT22;2004;52.452;13.120;2023-04-25T00:53:30;9.10;99.90
3980;DHT22;2004;52.452;13.120;2023-04-25T01:01:22;9.10;99.90
3980;DHT22;2004;52.452;13.120;2023-04-25T01:09:13;9.10;99.90
3980;DHT22;2004;52.452;13.120;2023-04-25T01:17:05;9.00;99.90
3980;DHT22;2004;52.452;13.120;2023-04-25T01:24:58;9.00;99.90
3980;DHT22;2004;52.452;13.120;2023-04-25T01:32:49;9.00;99.90
3980;DHT22;2004;52.452;13.120;2023-04-25T01:40:41;9.00;99.90
3980;DHT22;2004;52.452;13.120;2023-04-25T01:48:31;9.00;99.90
3980;DHT22;2004;52.452;13.120;2023-04-25T01:56:22;9.00;99.90
3980;DHT22;2004;52.452;13.120;2023-04-25T02:04:12;8.90;99.90
3980;DHT22;2004;52.452;13.120;2023-04-25T02:12:04;8.90;99.90
3980;DHT22;2004;52.452;13.120;2023-04-25T02:19:55;8.90;99.90
3980;DHT22;2004;52.452;13.120;2023-04-25T02:27:46;8.80;99.90
3980;DHT22;2004;52.452;13.120;2023-04-25T02:35:37;8.80;99.90
3980;DHT22;2004;52.452;13.120;2023-04-25T02:43:28;8.80;99.90
3980;DHT22;2004;52.452;13.120;2023-04-25T02:51:19;8.80;99.90
3980;DHT22;2004;52.452;13.120;2023-04-25T02:59:11;8.70;99.90
3980;DHT22;2004;52.452;13.120;2023-04-25T03:07:01;8.70;99.90
3980;DHT22;2004;52.452;13.120;2023-04-25T03:14:52;8.70;99.90
3980;DHT22;2004;52.452;13.120;2023-04-25T03:22:43;8.70;99.90
3980;DHT22;2004;52.452;13.120;2023-04-25T03:30:34;8.60;99.90
3980;DHT22;2004;52.452;13.120;2023-04-25T03:38:25;8.60;99.90
3980;DHT22;2004;52.452;13.120;2023-04-25T03:46:15;8.60;99.90
3980;DHT22;2004;52.452;13.120;2023-04-25T03:54:06;8.50;99.90
3980;DHT22;2004;52.452;13.120;2023-04-25T04:01:57;8.50;99.90
3980;DHT22;2004;52.452;13.120;2023-04-25T04:09:48;8.50;99.90
3980;DHT22;2004;52.452;13.120;2023-04-25T04:17:38;8.50;99.90
3980;DHT22;2004;52.452;13.120;2023-04-25T04:25:29;8.50;99.90
3980;DHT22;2004;52.452;13.120;2023-04-25T04:33:20;8.60;99.90
3980;DHT22;2004;52.452;13.120;2023-04-25T04:41:10;8.60;99.90
3980;DHT22;2004;52.452;13.120;2023-04-25T04:49:01;8.60;99.90
3980;DHT22;2004;52.452;13.120;2023-04-25T04:56:52;8.60;99.90
3980;DHT22;2004;52.452;13.120;2023-04-25T05:04:43;8.60;99.90
3980;DHT22;2004;52.452;13.120;2023-04-25T05:12:33;8.60;99.90
3980;DHT22;2004;52.452;13.120;2023-04-25T05:20:24;8.50;99.90
3980;DHT22;2004;52.452;13.120;2023-04-25T05:28:14;8.60;99.90
3980;DHT22;2004;52.452;13.120;2023-04-25T05:36:05;8.60;99.90
3980;DHT22;2004;52.452;13.120;2023-04-25T05:43:56;8.60;99.90
3980;DHT22;2004;52.452;13.120;2023-04-25T05:51:47;8.60;99.90
3980;DHT22;2004;52.452;13.120;2023-04-25T05:59:37;8.70;99.90
3980;DHT22;2004;52.452;13.120;2023-04-25T06:07:28;8.70;99.90
3980;DHT22;2004;52.452;13.120;2023-04-25T06:15:18;8.70;99.90
3980;DHT22;2004;52.452;13.120;2023-04-25T06:23:09;8.70;99.90
3980;DHT22;2004;52.452;13.120;2023-04-25T06:31:00;8.70;99.90
3980;DHT22;2004;52.452;13.120;2023-04-25T06:38:51;8.70;99.90
3980;DHT22;2004;52.452;13.120;2023-04-25T06:46:44;8.70;99.90
3980;DHT22;2004;52.452;13.120;2023-04-25T06:54:34;8.70;99.90
3980;DHT22;2004;52.452;13.120;2023-04-25T07:02:25;8.50;99.90
3980;DHT22;2004;52.452;13.120;2023-04-25T07:10:15;8.40;99.90
3980;DHT22;2004;52.452;13.120;2023-04-25T07:18:07;8.30;99.90
3980;DHT22;2004;52.452;13.120;2023-04-25T07:25:57;8.40;99.90
3980;DHT22;2004;52.452;13.120;2023-04-25T07:33:48;8.40;99.90
3980;DHT22;2004;52.452;13.120;2023-04-25T07:41:38;8.50;99.90
3980;DHT22;2004;52.452;13.120;2023-04-25T07:49:29;8.50;99.90
3980;DHT22;2004;52.452;13.120;2023-04-25T07:57:19;8.60;99.90
3980;DHT22;2004;52.452;13.120;2023-04-25T08:05:10;8.60;99.90
3980;DHT22;2004;52.452;13.120;2023-04-25T08:13:04;8.70;99.90
3980;DHT22;2004;52.452;13.120;2023-04-25T08:20:56;8.90;99.90
3980;DHT22;2004;52.452;13.120;2023-04-25T08:28:46;8.90;99.90
3980;DHT22;2004;52.452;13.120;2023-04-25T08:36:38;8.90;99.90
3980;DHT22;2004;52.452;13.120;2023-04-25T08:44:30;9.10;99.90
3980;DHT22;2004;52.452;13.120;2023-04-25T08:52:23;9.40;93.90
3980;DHT22;2004;52.452;13.120;2023-04-25T09:00:16;9.60;93.00
3980;DHT22;2004;52.452;13.120;2023-04-25T09:08:07;9.60;90.60
3980;DHT22;2004;52.452;13.120;2023-04-25T09:15:58;9.80;89.60
3980;DHT22;2004;52.452;13.120;2023-04-25T09:23:49;9.80;87.10
3980;DHT22;2004;52.452;13.120;2023-04-25T09:31:41;9.90;87.80
3980;DHT22;2004;52.452;13.120;2023-04-25T09:39:33;9.90;83.10
3980;DHT22;2004;52.452;13.120;2023-04-25T09:47:26;9.90;81.10
3980;DHT22;2004;52.452;13.120;2023-04-25T09:55:17;10.00;79.70
3980;DHT22;2004;52.452;13.120;2023-04-25T10:03:08;10.20;75.90
3980;DHT22;2004;52.452;13.120;2023-04-25T10:11:03;10.20;74.40
3980;DHT22;2004;52.452;13.120;2023-04-25T10:18:53;10.30;73.80
3980;DHT22;2004;52.452;13.120;2023-04-25T10:26:45;10.60;74.50
3980;DHT22;2004;52.452;13.120;2023-04-25T10:34:41;10.70;71.20
3980;DHT22;2004;52.452;13.120;2023-04-25T10:42:32;10.60;72.00
3980;DHT22;2004;52.452;13.120;2023-04-25T10:50:37;10.70;70.80
3980;DHT22;2004;52.452;13.120;2023-04-25T10:58:29;10.70;68.40
3980;DHT22;2004;52.452;13.120;2023-04-25T11:06:29;10.60;67.80
3980;DHT22;2004;52.452;13.120;2023-04-25T11:14:22;10.30;68.70
3980;DHT22;2004;52.452;13.120;2023-04-25T11:22:13;10.10;69.00
3980;DHT22;2004;52.452;13.120;2023-04-25T11:30:16;9.90;67.30
3980;DHT22;2004;52.452;13.120;2023-04-25T11:38:09;9.90;66.30
3980;DHT22;2004;52.452;13.120;2023-04-25T11:46:00;10.00;64.10
3980;DHT22;2004;52.452;13.120;2023-04-25T11:53:50;10.10;67.20
3980;DHT22;2004;52.452;13.120;2023-04-25T12:01:48;10.00;65.30
3980;DHT22;2004;52.452;13.120;2023-04-25T12:09:39;10.10;62.80
3980;DHT22;2004;52.452;13.120;2023-04-25T12:17:30;10.20;64.90
3980;DHT22;2004;52.452;13.120;2023-04-25T12:25:43;10.30;65.00
3980;DHT22;2004;52.452;13.120;2023-04-25T12:33:41;10.50;64.50
3980;DHT22;2004;52.452;13.120;2023-04-25T12:41:33;10.30;62.30
3980;DHT22;2004;52.452;13.120;2023-04-25T12:49:23;10.10;64.50
3980;DHT22;2004;52.452;13.120;2023-04-25T12:57:14;10.00;65.20
3980;DHT22;2004;52.452;13.120;2023-04-25T13:05:05;10.00;66.30
3980;DHT22;2004;52.452;13.120;2023-04-25T13:12:56;10.20;65.10
3980;DHT22;2004;52.452;13.120;2023-04-25T13:20:47;10.50;64.30
3980;DHT22;2004;52.452;13.120;2023-04-25T13:28:39;10.70;63.80
3980;DHT22;2004;52.452;13.120;2023-04-25T13:36:31;10.80;63.10
3980;DHT22;2004;52.452;13.120;2023-04-25T13:44:22;10.60;64.30
3980;DHT22;2004;52.452;13.120;2023-04-25T13:52:12;10.40;64.90
3980;DHT22;2004;52.452;13.120;2023-04-25T14:00:04;10.20;65.80
3980;DHT22;2004;52.452;13.120;2023-04-25T14:07:58;10.00;67.80
3980;DHT22;2004;52.452;13.120;2023-04-25T14:15:49;9.80;69.40
3980;DHT22;2004;52.452;13.120;2023-04-25T14:23:40;9.60;70.40
3980;DHT22;2004;52.452;13.120;2023-04-25T14:31:32;9.60;71.30
3980;DHT22;2004;52.452;13.120;2023-04-25T14:39:22;9.70;70.70
3980;DHT22;2004;52.452;13.120;2023-04-25T14:47:13;9.80;70.80
3980;DHT22;2004;52.452;13.120;2023-04-25T14:55:03;9.80;71.80
3980;DHT22;2004;52.452;13.120;2023-04-25T15:02:58;9.80;72.20
3980;DHT22;2004;52.452;13.120;2023-04-25T15:10:49;9.80;71.20
3980;DHT22;2004;52.452;13.120;2023-04-25T15:18:40;9.80;72.30
3980;DHT22;2004;52.452;13.120;2023-04-25T15:26:31;9.80;75.10
3980;DHT22;2004;52.452;13.120;2023-04-25T15:34:21;9.90;74.90
3980;DHT22;2004;52.452;13.120;2023-04-25T15:42:12;10.00;71.30
3980;DHT22;2004;52.452;13.120;2023-04-25T15:50:04;10.10;71.70
3980;DHT22;2004;52.452;13.120;2023-04-25T15:57:55;10.10;70.30
3980;DHT22;2004;52.452;13.120;2023-04-25T16:05:46;9.90;70.80
3980;DHT22;2004;52.452;13.120;2023-04-25T16:13:37;9.80;70.60
3980;DHT22;2004;52.452;13.120;2023-04-25T16:21:27;9.70;72.30
3980;DHT22;2004;52.452;13.120;2023-04-25T16:29:18;9.60;73.30
3980;DHT22;2004;52.452;13.120;2023-04-25T16:37:08;9.50;75.10
3980;DHT22;2004;52.452;13.120;2023-04-25T16:44:59;9.40;72.80
3980;DHT22;2004;52.452;13.120;2023-04-25T16:52:51;9.30;74.10
3980;DHT22;2004;52.452;13.120;2023-04-25T17:00:41;9.50;72.70
3980;DHT22;2004;52.452;13.120;2023-04-25T17:08:32;9.50;71.40
3980;DHT22;2004;52.452;13.120;2023-04-25T17:16:37;9.50;71.20
3980;DHT22;2004;52.452;13.120;2023-04-25T17:24:31;9.50;70.60
3980;DHT22;2004;52.452;13.120;2023-04-25T17:32:21;9.40;72.10
3980;DHT22;2004;52.452;13.120;2023-04-25T17:40:12;9.30;72.80
3980;DHT22;2004;52.452;13.120;2023-04-25T17:48:04;9.20;73.60
3980;DHT22;2004;52.452;13.120;2023-04-25T17:55:54;9.10;75.90
3980;DHT22;2004;52.452;13.120;2023-04-25T18:03:45;9.00;76.60
3980;DHT22;2004;52.452;13.120;2023-04-25T18:11:38;9.00;77.60
3980;DHT22;2004;52.452;13.120;2023-04-25T18:19:28;9.00;79.30
3980;DHT22;2004;52.452;13.120;2023-04-25T18:27:19;8.90;81.50
3980;DHT22;2004;52.452;13.120;2023-04-25T18:35:10;8.90;82.20
3980;DHT22;2004;52.452;13.120;2023-04-25T18:43:01;8.90;81.40
3980;DHT22;2004;52.452;13.120;2023-04-25T18:50:52;8.80;82.30
3980;DHT22;2004;52.452;13.120;2023-04-25T18:58:42;8.70;81.40
3980;DHT22;2004;52.452;13.120;2023-04-25T19:06:33;8.60;78.20
3980;DHT22;2004;52.452;13.120;2023-04-25T19:14:24;8.50;77.90
3980;DHT22;2004;52.452;13.120;2023-04-25T19:22:17;8.40;78.30
3980;DHT22;2004;52.452;13.120;2023-04-25T19:30:08;8.20;79.40
3980;DHT22;2004;52.452;13.120;2023-04-25T19:37:59;8.10;79.90
3980;DHT22;2004;52.452;13.120;2023-04-25T19:45:51;8.00;80.20
3980;DHT22;2004;52.452;13.120;2023-04-25T19:53:43;7.80;80.70
3980;DHT22;2004;52.452;13.120;2023-04-25T20:01:34;7.70;81.80
3980;DHT22;2004;52.452;13.120;2023-04-25T20:09:25;7.60;82.60
3980;DHT22;2004;52.452;13.120;2023-04-25T20:17:16;7.50;83.80
3980;DHT22;2004;52.452;13.120;2023-04-25T20:25:08;7.40;85.20
3980;DHT22;2004;52.452;13.120;2023-04-25T20:33:01;7.40;87.20
3980;DHT22;2004;52.452;13.120;2023-04-25T20:40:52;7.20;87.50
3980;DHT22;2004;52.452;13.120;2023-04-25T20:48:46;7.20;89.00
3980;DHT22;2004;52.452;13.120;2023-04-25T20:56:49;7.10;89.10
3980;DHT22;2004;52.452;13.120;2023-04-25T21:04:42;7.10;89.50
3980;DHT22;2004;52.452;13.120;2023-04-25T21:12:36;7.10;89.40
3980;DHT22;2004;52.452;13.120;2023-04-25T21:20:27;7.10;89.60
3980;DHT22;2004;52.452;13.120;2023-04-25T21:28:19;7.00;89.70
3980;DHT22;2004;52.452;13.120;2023-04-25T21:36:16;6.90;90.10
3980;DHT22;2004;52.452;13.120;2023-04-25T21:44:06;6.80;90.20
3980;DHT22;2004;52.452;13.120;2023-04-25T21:51:57;6.70;90.30
3980;DHT22;2004;52.452;13.120;2023-04-25T21:59:48;6.60;90.00
3980;DHT22;2004;52.452;13.120;2023-04-25T22:07:39;6.50;89.00
3980;DHT22;2004;52.452;13.120;2023-04-25T22:15:30;6.40;88.70
3980;DHT22;2004;52.452;13.120;2023-04-25T22:23:21;6.30;88.90
3980;DHT22;2004;52.452;13.120;2023-04-25T22:31:13;6.20;89.70
3980;DHT22;2004;52.452;13.120;2023-04-25T22:39:04;6.10;90.00
3980;DHT22;2004;52.452;13.120;2023-04-25T22:46:55;6.10;90.90
3980;DHT22;2004;52.452;13.120;2023-04-25T22:54:47;6.00;91.40
3980;DHT22;2004;52.452;13.120;2023-04-25T23:02:38;6.00;91.50
3980;DHT22;2004;52.452;13.120;2023-04-25T23:18:02;5.80;92.10
3980;DHT22;2004;52.452;13.120;2023-04-25T23:25:52;5.70;92.80
3980;DHT22;2004;52.452;13.120;2023-04-25T23:33:43;5.60;93.40
3980;DHT22;2004;52.452;13.120;2023-04-25T23:41:33;5.60;93.70
3980;DHT22;2004;52.452;13.120;2023-04-25T23:49:24;5.50;93.80
3980;DHT22;2004;52.452;13.120;2023-04-25T23:57:15;5.50;94.40
